Meteo Giornale » Osservazioni meteo Italia » Treviso-S Angelo

ore: 23:20 - Osservazioni Meteo Treviso-S Angelo
Lat. 45° 39' N Lon. 12° 11' E Alt. 18 metri s.l.m.

molto_nuvoloso Europe/Rome

19 °C

Molto Nuvoloso

Temp. 24 Ore

15 °C

27 °C

Nord-Est

11.1 Km/h

Dew point 15 °C

Umidità 77 %

Visibilità  10 Km

Il sole sorge alle ore 05:22

Il sole tramonta alle ore 20:56

Data e Ora Cielo e Fenomeni T °C DP °C Um. % Pres. hPa Vis. km Vento km/h
Oggi h: 23:20 molto_nuvoloso Molto Nuvoloso 19 15 77 1011 10 NE 11.1
Oggi h: 22:20 poco_nuvoloso Poco Nuvoloso 21 15 68 1011 10 N 5.5
Oggi h: 21:50 poco_nuvoloso Poco Nuvoloso 21 14 64 1011 10 N 5.5
Oggi h: 21:20 sereno Sereno 21 15 68 1010 10 N 3.7
Oggi h: 20:50 sereno Sereno 22 14 60 1010 10 N 5.5
Oggi h: 20:20 sereno Sereno 22 15 64 1010 10 E/NE 13
Oggi h: 19:50 sereno Sereno 23 14 56 1010 10 N/NE 11.1
Oggi h: 19:20 poco_nuvoloso Poco Nuvoloso 24 15 57 1010 10 NE 11.1
Oggi h: 18:50 nuvoloso Nuvoloso 23 15 60 1009 10 E/NE 11.1
Oggi h: 17:50 molto_nuvoloso Molto Nuvoloso 24 13 50 1009 10 S 22.2
Oggi h: 17:20 coperto_pioggia Pioggia Debole 26 11 39 1010 10 S/SE 11.1
Oggi h: 16:50 nuvoloso Nuvoloso 27 11 36 1010 10 SE 13
Oggi h: 16:20 sereno Sereno 27 11 36 1010 10 SE 16.7
Oggi h: 15:50 sereno Sereno 27 12 39 1011 10 E/SE 13
Oggi h: 15:20 sereno Sereno 27 12 39 1011 10 SE 16.7
Oggi h: 14:50 sereno Sereno 27 12 39 1011 10 SE 13
Oggi h: 13:50 sereno Sereno 27 8 30 1012 10 SO 9.3
Oggi h: 13:20 sereno Sereno 27 8 30 1012 10 S/SO 9.3
Oggi h: 12:50 sereno Sereno 27 9 32 1013 10 N 5.5
Oggi h: 12:20 sereno Sereno 26 10 36 1013 10 N 5.5
Oggi h: 11:50 sereno Sereno 25 11 41 1013 10 N 5.5
Oggi h: 11:20 sereno Sereno 25 11 41 1014 10 N 5.5
Oggi h: 10:50 sereno Sereno 24 10 41 1014 10 N 5.5
Oggi h: 10:20 sereno Sereno 24 12 47 1014 10 N 3.7
Oggi h: 09:50 sereno Sereno 23 14 56 1014 10 N 3.7
Oggi h: 09:20 sereno Sereno 22 14 60 1014 10 N 5.5
Oggi h: 08:50 sereno Sereno 21 14 64 1014 10 E/NE 7.4
Oggi h: 08:20 sereno Sereno 19 14 72 1015 10 NE 11.1
Oggi h: 07:50 sereno Sereno 18 14 77 1015 10 NE 9.3
Oggi h: 07:20 sereno Sereno 18 13 72 1015 10 N/NE 7.4
Oggi h: 06:50 nuvoloso Nuvoloso 17 12 72 1015 10 N 5.5
Oggi h: 05:50 poco_nuvoloso Poco Nuvoloso 15 11 76 1015 10 N 3.7
Oggi h: 04:50 nuvoloso Nuvoloso 16 11 72 1015 10 N 3.7
Oggi h: 04:20 molto_nuvoloso Molto Nuvoloso 16 11 72 1016 10 N 3.7
Oggi h: 03:50 coperto Coperto 16 11 72 1016 10 N 5.5
Oggi h: 03:20 nuvoloso Nuvoloso 15 11 76 1016 10 N 3.7
Oggi h: 02:50 sereno Sereno 17 11 67 1016 10 N 5.5
Oggi h: 02:20 sereno Sereno 16 11 72 1016 10 N 1.8
Oggi h: 01:50 sereno Sereno 16 11 72 1016 10 N 3.7
Oggi h: 01:20 sereno Sereno 17 11 67 1016 10 N 1.8
Oggi h: 00:50 sereno Sereno 18 11 63 1016 10 N 5.5
Oggi h: 00:20 sereno Sereno 17 11 67 1016 10 N 3.7
Ieri h: 23:50 sereno Sereno 19 11 59 1016 10 N 3.7